Time;durP1;ratioP1;P1;durP2;ratioP2;P2;SDS_P1;SDS_P2;PMS_P1;PMS_P2;Temp;Humidity;BMP_temperature;BMP_pressure;BME280_temperature;BME280_humidity;BME280_pressure;Samples;Min_cycle;Max_cycle;Signal;HPM_P1;HPM_P2
2022/07/22 00:00:39;;;;;;;4.97;3.72;;;25.40;93.70;;;;;;1904704;74;21155;-74
2022/07/22 00:03:30;;;;;;;4.20;3.70;;;25.40;94.20;;;;;;1904800;74;21842;-74
2022/07/22 00:06:22;;;;;;;6.40;5.80;;;25.40;94.30;;;;;;1908845;74;21226;-75
2022/07/22 00:09:13;;;;;;;6.37;4.25;;;25.40;94.20;;;;;;1905995;74;21093;-74
2022/07/22 00:12:10;;;;;;;5.33;3.77;;;25.50;94.20;;;;;;1904957;74;21600;-75
2022/07/22 00:15:02;;;;;;;4.65;3.65;;;25.50;94.40;;;;;;1926918;74;21637;-75
2022/07/22 00:17:53;;;;;;;5.80;3.85;;;25.40;94.30;;;;;;1905813;74;21116;-74
2022/07/22 00:20:45;;;;;;;4.75;3.62;;;25.40;94.20;;;;;;1907588;74;21051;-75
2022/07/22 00:23:36;;;;;;;5.60;3.58;;;25.50;94.00;;;;;;1904722;74;21533;-75
2022/07/22 00:26:27;;;;;;;4.75;3.90;;;25.40;94.00;;;;;;1904782;74;21055;-75
2022/07/22 00:29:19;;;;;;;4.08;3.67;;;25.40;94.00;;;;;;1915743;74;21130;-75
2022/07/22 00:32:11;;;;;;;4.72;3.60;;;25.40;94.10;;;;;;1917020;73;21150;-75
2022/07/22 00:35:02;;;;;;;4.87;3.85;;;25.40;94.30;;;;;;1908779;73;21075;-75
2022/07/22 00:37:53;;;;;;;6.30;3.95;;;25.30;94.30;;;;;;1905856;74;21125;-75
2022/07/22 00:40:45;;;;;;;4.20;3.80;;;25.30;94.30;;;;;;1894465;74;21109;-74
2022/07/22 00:43:54;;;;;;;3.85;3.55;;;25.30;94.50;;;;;;1923720;74;21070;-74
2022/07/22 00:46:46;;;;;;;4.45;3.50;;;25.20;94.70;;;;;;1911344;74;21059;-75
2022/07/22 00:49:37;;;;;;;6.00;3.60;;;25.20;94.80;;;;;;1905724;74;21153;-75
2022/07/22 00:52:29;;;;;;;4.97;4.15;;;25.20;94.70;;;;;;1904595;74;21043;-74
2022/07/22 00:55:21;;;;;;;4.35;3.95;;;25.20;94.50;;;;;;1909282;74;21105;-74
2022/07/22 00:58:12;;;;;;;4.58;3.35;;;25.10;95.00;;;;;;1924010;74;21116;-74
2022/07/22 01:01:04;;;;;;;6.45;4.00;;;25.00;95.70;;;;;;1906434;74;21325;-75
2022/07/22 01:03:55;;;;;;;6.25;4.05;;;24.90;96.10;;;;;;1922348;74;21116;-74
2022/07/22 01:06:50;;;;;;;4.90;3.70;;;24.80;96.30;;;;;;1904574;74;21143;-74
2022/07/22 01:09:46;;;;;;;6.10;4.00;;;24.90;96.30;;;;;;1906355;74;21513;-74
2022/07/22 01:12:37;;;;;;;4.75;3.80;;;24.90;96.30;;;;;;1909787;74;21490;-74
2022/07/22 01:15:28;;;;;;;4.53;3.60;;;25.00;96.10;;;;;;1904226;74;21063;-74
2022/07/22 01:18:20;;;;;;;5.00;4.03;;;25.10;96.00;;;;;;1901029;74;21197;-74
2022/07/22 01:21:13;;;;;;;4.42;3.58;;;25.20;95.90;;;;;;1893643;76;21517;-74
2022/07/22 01:24:08;;;;;;;4.97;3.60;;;25.20;95.90;;;;;;1909019;74;21136;-74
2022/07/22 01:26:59;;;;;;;3.77;3.47;;;25.30;95.90;;;;;;1904931;74;21117;-74
2022/07/22 01:29:52;;;;;;;4.67;3.55;;;25.30;95.90;;;;;;1907045;74;21506;-74
2022/07/22 01:32:47;;;;;;;4.40;3.50;;;25.20;96.10;;;;;;1903445;74;21059;-74
2022/07/22 01:35:42;;;;;;;3.80;3.40;;;25.20;96.40;;;;;;1859796;76;21189;-75
2022/07/22 01:38:33;;;;;;;6.30;3.65;;;25.20;96.80;;;;;;1923868;74;21393;-74
2022/07/22 01:41:25;;;;;;;4.20;3.35;;;25.20;96.60;;;;;;1919780;74;21094;-74
2022/07/22 01:44:16;;;;;;;4.53;3.35;;;25.20;96.80;;;;;;1911650;74;21081;-75
2022/07/22 01:47:08;;;;;;;5.37;3.95;;;25.20;96.90;;;;;;1912240;74;21070;-75
2022/07/22 01:50:00;;;;;;;5.08;3.42;;;25.30;97.10;;;;;;1901865;74;21056;-74
2022/07/22 01:52:51;;;;;;;4.55;3.60;;;25.20;97.20;;;;;;1903723;74;21105;-74
2022/07/22 01:55:43;;;;;;;5.35;3.75;;;25.20;97.40;;;;;;1904744;74;21058;-74
2022/07/22 01:58:35;;;;;;;5.10;3.67;;;25.20;97.50;;;;;;1911200;74;21052;-74
2022/07/22 02:01:28;;;;;;;4.33;3.70;;;25.10;97.60;;;;;;1917051;74;21109;-74
2022/07/22 02:04:20;;;;;;;5.53;3.72;;;25.10;97.90;;;;;;1911553;74;21671;-74
2022/07/22 02:07:13;;;;;;;5.60;3.62;;;25.00;98.20;;;;;;1910965;74;21062;-74
2022/07/22 02:10:06;;;;;;;4.20;3.77;;;24.90;98.30;;;;;;1924516;74;21054;-75
2022/07/22 02:12:59;;;;;;;5.65;3.75;;;24.90;98.40;;;;;;1906810;74;21557;-74
2022/07/22 02:15:51;;;;;;;5.47;3.70;;;24.90;98.60;;;;;;1902908;74;21109;-75
2022/07/22 02:18:43;;;;;;;6.65;3.72;;;24.90;98.70;;;;;;1922118;74;21124;-73
2022/07/22 02:21:34;;;;;;;4.70;3.87;;;24.80;98.80;;;;;;1904403;74;21713;-74
2022/07/22 02:24:25;;;;;;;4.42;3.67;;;24.80;99.00;;;;;;1925187;74;21098;-74
2022/07/22 02:27:17;;;;;;;5.35;3.52;;;24.70;99.10;;;;;;1908833;74;21119;-74
2022/07/22 02:30:10;;;;;;;5.35;3.62;;;24.70;99.10;;;;;;1925631;74;21153;-74
2022/07/22 02:33:01;;;;;;;4.90;3.90;;;24.70;99.10;;;;;;1910712;74;21090;-74
2022/07/22 02:35:53;;;;;;;5.00;3.77;;;24.70;99.00;;;;;;1938285;73;21596;-75
2022/07/22 02:38:45;;;;;;;5.45;3.87;;;24.60;98.90;;;;;;1825899;78;21166;-74
2022/07/22 02:41:38;;;;;;;5.37;3.85;;;24.70;99.30;;;;;;1912280;74;21098;-75
2022/07/22 02:44:29;;;;;;;5.50;4.12;;;24.60;99.00;;;;;;1905800;74;21082;-74
2022/07/22 02:47:21;;;;;;;4.22;3.62;;;24.60;99.00;;;;;;1922051;74;21147;-75
2022/07/22 02:50:13;;;;;;;5.15;4.10;;;24.60;99.40;;;;;;1913369;74;21171;-74
2022/07/22 02:53:04;;;;;;;6.37;3.90;;;24.50;99.30;;;;;;1914307;74;21058;-74
2022/07/22 02:55:57;;;;;;;5.10;4.33;;;24.40;99.40;;;;;;1910939;74;21177;-74
2022/07/22 02:58:51;;;;;;;5.15;4.00;;;24.40;99.70;;;;;;1909091;74;21518;-74
2022/07/22 03:01:42;;;;;;;5.60;4.00;;;24.40;99.60;;;;;;1921106;74;21094;-74
2022/07/22 03:04:33;;;;;;;5.60;4.10;;;24.30;99.80;;;;;;1928787;74;21113;-74
2022/07/22 03:07:25;;;;;;;6.05;4.15;;;24.30;99.80;;;;;;1915841;74;21054;-74
2022/07/22 03:10:17;;;;;;;4.65;4.15;;;24.30;99.80;;;;;;1902960;74;21051;-74
2022/07/22 03:13:09;;;;;;;5.97;4.10;;;24.30;99.80;;;;;;1900111;74;21115;-74
2022/07/22 03:16:01;;;;;;;4.40;3.90;;;24.20;99.90;;;;;;1916170;74;21143;-74
2022/07/22 03:18:53;;;;;;;4.95;4.45;;;24.20;99.90;;;;;;1911732;74;21046;-74
2022/07/22 03:21:45;;;;;;;4.62;4.22;;;24.20;99.90;;;;;;1909106;74;21054;-74
2022/07/22 03:24:37;;;;;;;4.83;4.30;;;24.20;99.90;;;;;;1913620;74;21128;-74
2022/07/22 03:27:29;;;;;;;6.50;4.10;;;24.20;99.90;;;;;;1912810;74;21161;-74
2022/07/22 03:30:21;;;;;;;5.55;4.15;;;24.10;99.90;;;;;;1913993;74;21066;-74
2022/07/22 03:33:12;;;;;;;5.30;4.30;;;24.00;99.90;;;;;;1902128;74;21101;-74
2022/07/22 03:36:04;;;;;;;6.95;4.50;;;24.00;99.90;;;;;;1864396;76;21173;-74
2022/07/22 03:38:58;;;;;;;5.72;4.03;;;24.00;99.90;;;;;;1899178;75;21102;-74
2022/07/22 03:41:51;;;;;;;4.37;3.98;;;24.00;99.90;;;;;;1824560;77;21191;-74
2022/07/22 03:44:42;;;;;;;4.50;3.90;;;24.00;99.90;;;;;;1910319;74;21110;-74
2022/07/22 03:47:34;;;;;;;4.30;3.87;;;24.00;99.90;;;;;;1910818;74;21164;-75
2022/07/22 03:50:26;;;;;;;5.53;3.95;;;24.00;99.90;;;;;;1932373;74;21497;-74
2022/07/22 03:53:18;;;;;;;4.85;4.22;;;23.90;99.90;;;;;;1917323;74;21049;-74
2022/07/22 03:56:10;;;;;;;5.75;4.30;;;23.90;99.90;;;;;;1911489;74;21138;-74
2022/07/22 03:59:01;;;;;;;5.67;4.03;;;23.90;99.90;;;;;;1911077;74;21070;-74
2022/07/22 04:01:53;;;;;;;4.60;4.17;;;23.90;99.90;;;;;;1932049;74;21167;-74
2022/07/22 04:04:44;;;;;;;4.92;4.20;;;23.90;99.90;;;;;;1903912;74;21474;-74
2022/07/22 04:07:35;;;;;;;8.08;4.50;;;23.90;99.90;;;;;;1912486;74;21120;-74
2022/07/22 04:10:27;;;;;;;6.80;4.15;;;23.90;99.90;;;;;;1906443;74;21442;-74
2022/07/22 04:13:18;;;;;;;5.15;4.00;;;23.90;99.90;;;;;;1922374;74;21120;-74
2022/07/22 04:16:11;;;;;;;6.20;4.35;;;23.90;99.90;;;;;;1900265;75;21501;-74
2022/07/22 04:19:05;;;;;;;6.58;4.08;;;23.90;99.90;;;;;;1913836;74;21059;-74
2022/07/22 04:22:04;;;;;;;5.20;4.35;;;23.90;99.90;;;;;;1907728;74;21099;-74
2022/07/22 04:24:56;;;;;;;7.97;5.12;;;23.90;99.90;;;;;;1869289;76;21061;-74
2022/07/22 04:27:47;;;;;;;4.95;4.45;;;23.90;99.90;;;;;;1900163;74;21528;-74
2022/07/22 04:30:38;;;;;;;6.22;4.10;;;23.90;99.90;;;;;;1916768;74;21158;-74
2022/07/22 04:33:30;;;;;;;7.15;4.55;;;23.90;99.90;;;;;;1911423;74;21079;-74
2022/07/22 04:36:22;;;;;;;4.87;4.25;;;23.90;99.90;;;;;;1910023;73;21619;-75
2022/07/22 04:39:14;;;;;;;8.50;4.47;;;23.90;99.90;;;;;;1907678;73;21093;-74
2022/07/22 04:42:07;;;;;;;5.70;3.87;;;23.90;99.90;;;;;;1857501;77;21623;-74
2022/07/22 04:44:59;;;;;;;7.03;4.08;;;23.90;99.90;;;;;;1838936;77;21146;-74
2022/07/22 04:47:51;;;;;;;6.62;3.77;;;23.90;99.90;;;;;;1853315;77;21599;-74
2022/07/22 04:50:42;;;;;;;6.30;4.87;;;24.00;99.90;;;;;;1912362;75;21783;-74
2022/07/22 04:53:34;;;;;;;5.50;4.53;;;24.00;99.90;;;;;;1897964;75;21610;-74
2022/07/22 04:56:27;;;;;;;5.25;4.75;;;23.90;99.90;;;;;;1915238;75;21118;-75
2022/07/22 04:59:18;;;;;;;6.87;4.05;;;23.90;99.90;;;;;;1896868;75;21088;-74
2022/07/22 05:02:10;;;;;;;5.78;4.28;;;23.70;99.90;;;;;;1906399;75;21149;-74
2022/07/22 05:05:03;;;;;;;5.25;4.47;;;23.50;99.90;;;;;;1905502;75;21109;-74
2022/07/22 05:07:55;;;;;;;6.30;4.15;;;23.40;99.90;;;;;;1897741;75;21146;-74
2022/07/22 05:10:47;;;;;;;5.85;4.20;;;23.40;99.90;;;;;;1887628;75;21054;-74
2022/07/22 05:13:39;;;;;;;5.95;4.37;;;23.30;99.90;;;;;;1884562;75;21051;-74
2022/07/22 05:16:31;;;;;;;5.30;4.70;;;23.30;99.90;;;;;;1889721;75;21055;-75
2022/07/22 05:19:23;;;;;;;9.13;5.15;;;23.40;99.90;;;;;;1908636;75;21107;-75
2022/07/22 05:22:16;;;;;;;5.97;4.45;;;23.50;99.90;;;;;;1890434;75;21075;-75
2022/07/22 05:25:09;;;;;;;7.60;4.80;;;23.60;99.90;;;;;;1906108;75;21053;-74
2022/07/22 05:28:01;;;;;;;7.50;4.50;;;23.60;99.90;;;;;;1888625;75;21126;-74
2022/07/22 05:30:57;;;;;;;9.00;5.53;;;23.80;99.90;;;;;;1895629;75;21062;-74
2022/07/22 05:33:49;;;;;;;9.35;4.72;;;23.80;99.90;;;;;;1884448;76;21176;-75
2022/07/22 05:36:43;;;;;;;8.10;4.70;;;24.00;99.90;;;;;;1898925;73;21121;-75
2022/07/22 05:39:35;;;;;;;6.28;4.53;;;24.00;99.90;;;;;;1918453;73;21097;-74
2022/07/22 05:42:27;;;;;;;6.28;5.00;;;24.10;99.90;;;;;;1905795;75;21094;-74
2022/07/22 05:45:18;;;;;;;5.58;4.92;;;24.10;99.90;;;;;;1902388;75;21063;-74
2022/07/22 05:48:10;;;;;;;4.83;4.28;;;24.10;99.90;;;;;;1894250;74;21104;-74
2022/07/22 05:51:01;;;;;;;5.85;4.20;;;24.20;99.90;;;;;;1893006;75;21063;-74
2022/07/22 05:53:54;;;;;;;4.50;3.98;;;24.20;99.90;;;;;;1894261;75;21131;-73
2022/07/22 05:56:45;;;;;;;7.67;4.53;;;24.20;99.90;;;;;;1891538;75;21158;-74
2022/07/22 05:59:43;;;;;;;6.40;4.50;;;24.20;99.90;;;;;;1896784;75;21091;-74
2022/07/22 06:02:31;;;;;;;4.53;4.08;;;24.20;99.90;;;;;;1887405;75;21396;-74
2022/07/22 06:05:23;;;;;;;7.28;4.62;;;24.20;99.90;;;;;;1905578;75;21231;-74
2022/07/22 06:08:16;;;;;;;6.17;4.08;;;24.30;99.90;;;;;;1905651;75;21585;-73
2022/07/22 06:11:09;;;;;;;6.85;4.62;;;24.30;99.90;;;;;;1883824;74;21553;-80
2022/07/22 06:14:00;;;;;;;7.53;4.47;;;24.40;99.90;;;;;;1883455;75;21059;-78
2022/07/22 06:16:52;;;;;;;5.55;4.30;;;24.40;99.90;;;;;;1882735;75;21592;-80
2022/07/22 06:19:47;;;;;;;6.58;4.40;;;24.40;99.90;;;;;;1878163;74;21563;-84
2022/07/22 06:22:41;;;;;;;9.50;4.58;;;24.50;99.90;;;;;;1895356;73;21096;-84
2022/07/22 06:25:33;;;;;;;4.62;4.22;;;24.60;99.90;;;;;;1891024;75;21216;-84
2022/07/22 06:28:26;;;;;;;6.25;4.40;;;24.70;99.90;;;;;;1883863;75;21112;-84
2022/07/22 06:31:17;;;;;;;7.70;4.40;;;24.70;99.90;;;;;;1896182;75;21172;-84
2022/07/22 06:34:09;;;;;;;6.15;4.35;;;24.70;99.90;;;;;;1882417;75;21095;-84
2022/07/22 06:37:02;;;;;;;7.97;4.90;;;24.80;99.90;;;;;;1882482;75;21126;-84
2022/07/22 06:39:53;;;;;;;6.47;4.55;;;24.90;99.90;;;;;;1883016;75;21128;-85
2022/07/22 06:42:46;;;;;;;9.58;5.33;;;24.90;99.90;;;;;;1900885;75;21214;-84
2022/07/22 06:45:52;;;;;;;5.70;4.72;;;24.90;99.90;;;;;;1807129;77;21176;-84
2022/07/22 06:48:45;;;;;;;9.13;5.47;;;25.00;99.90;;;;;;1836084;77;21153;-84
2022/07/22 06:51:36;;;;;;;6.12;4.83;;;25.00;99.90;;;;;;1837146;76;21207;-84
2022/07/22 06:54:28;;;;;;;6.28;4.92;;;25.10;99.90;;;;;;1836038;77;21124;-84
2022/07/22 06:57:20;;;;;;;5.87;4.85;;;25.00;99.90;;;;;;1827273;77;21128;-84
2022/07/22 07:00:14;;;;;;;8.68;5.17;;;25.10;99.90;;;;;;1894176;75;21139;-83
2022/07/22 07:03:08;;;;;;;6.05;5.37;;;25.20;99.90;;;;;;1891044;75;21068;-84
2022/07/22 07:06:02;;;;;;;6.62;5.20;;;25.40;99.90;;;;;;1899418;75;21219;-84
2022/07/22 07:08:59;;;;;;;5.92;5.12;;;25.40;99.90;;;;;;1896201;75;21231;-84
2022/07/22 07:11:58;;;;;;;8.83;5.60;;;25.40;99.90;;;;;;1899460;75;21146;-84
2022/07/22 07:15:16;;;;;;;7.53;5.20;;;25.50;99.90;;;;;;1893379;75;21103;-84
2022/07/22 07:18:19;;;;;;;7.90;5.30;;;25.60;99.90;;;;;;1890568;75;21104;-84
2022/07/22 07:21:11;;;;;;;6.60;5.15;;;25.70;99.90;;;;;;1893865;73;21130;-84
2022/07/22 07:24:04;;;;;;;9.48;5.40;;;25.70;99.90;;;;;;1897587;75;21185;-83
2022/07/22 07:26:55;;;;;;;7.55;5.00;;;25.70;99.90;;;;;;1906546;75;21543;-83
2022/07/22 07:29:47;;;;;;;7.00;5.53;;;25.80;99.90;;;;;;1894838;75;21096;-84
2022/07/22 07:32:38;;;;;;;7.85;4.97;;;25.90;99.90;;;;;;1892096;75;21103;-84
2022/07/22 07:35:30;;;;;;;9.78;5.53;;;25.90;99.90;;;;;;1907554;75;21590;-84
2022/07/22 07:38:24;;;;;;;7.55;5.17;;;26.00;99.90;;;;;;1890395;75;21236;-84
2022/07/22 07:41:17;;;;;;;9.18;5.40;;;26.20;99.90;;;;;;1897072;75;21112;-85
2022/07/22 07:44:10;;;;;;;9.43;5.40;;;26.20;99.90;;;;;;1899031;75;21162;-85
2022/07/22 07:47:02;;;;;;;8.03;4.87;;;26.40;99.90;;;;;;1893780;75;21333;-85
2022/07/22 07:49:54;;;;;;;8.38;5.10;;;26.40;99.90;;;;;;1897911;73;21551;-85
2022/07/22 07:52:49;;;;;;;8.98;5.20;;;26.50;99.90;;;;;;1907230;73;21147;-86
2022/07/22 07:55:45;;;;;;;9.50;5.33;;;26.60;99.90;;;;;;1907401;74;21086;-86
2022/07/22 07:58:41;;;;;;;5.33;4.60;;;26.70;99.90;;;;;;1894941;74;21166;-85
2022/07/22 08:01:33;;;;;;;6.85;4.80;;;26.80;99.90;;;;;;1904922;74;21251;-85
2022/07/22 08:04:27;;;;;;;7.40;4.72;;;26.90;99.90;;;;;;1901045;74;21170;-85
2022/07/22 08:10:01;;;;;;;5.80;4.90;;;27.10;99.90;;;;;;1922640;72;22491;-85
2022/07/22 08:13:12;;;;;;;6.45;4.75;;;27.20;99.90;;;;;;1879274;75;21223;-85
2022/07/22 08:16:14;;;;;;;6.15;4.75;;;27.30;99.90;;;;;;1889080;75;21132;-85
2022/07/22 08:19:06;;;;;;;5.33;4.62;;;27.40;99.90;;;;;;1890774;74;21109;-85
2022/07/22 08:21:58;;;;;;;11.12;4.97;;;27.40;99.90;;;;;;1891770;74;21116;-85
2022/07/22 08:24:56;;;;;;;6.30;4.90;;;27.50;99.90;;;;;;1887622;74;21160;-85
2022/07/22 08:27:49;;;;;;;6.10;4.50;;;27.50;99.90;;;;;;1883436;76;21060;-85
2022/07/22 08:30:41;;;;;;;5.25;4.62;;;27.60;99.90;;;;;;1904755;75;21099;-85
2022/07/22 08:33:34;;;;;;;5.28;4.58;;;27.70;99.90;;;;;;1881590;75;21159;-85
2022/07/22 08:36:26;;;;;;;5.42;4.87;;;27.80;99.90;;;;;;1904510;75;21055;-85
2022/07/22 08:39:18;;;;;;;5.47;4.80;;;27.90;99.90;;;;;;1889144;74;21114;-85
2022/07/22 08:42:11;;;;;;;5.12;4.60;;;27.90;99.90;;;;;;1879634;75;21617;-85
2022/07/22 08:45:02;;;;;;;5.47;4.53;;;28.00;99.90;;;;;;1904619;75;21114;-85
2022/07/22 08:47:58;;;;;;;5.90;4.55;;;28.00;99.90;;;;;;1904330;75;21164;-85
2022/07/22 08:51:09;;;;;;;7.87;5.03;;;28.10;99.90;;;;;;1905472;74;21117;-92
2022/07/22 08:54:06;;;;;;;6.40;4.92;;;28.10;99.90;;;;;;1906215;75;21059;-91
2022/07/22 08:56:58;;;;;;;6.45;5.30;;;28.20;99.90;;;;;;1882299;74;21060;-93
2022/07/22 08:59:57;;;;;;;13.68;5.25;;;28.20;99.90;;;;;;1868719;75;21079;-93
2022/07/22 09:02:50;;;;;;;7.28;4.87;;;28.30;99.90;;;;;;1885711;74;21134;-92
2022/07/22 09:05:44;;;;;;;5.87;4.90;;;28.30;99.90;;;;;;1885142;75;21180;-93
2022/07/22 09:08:53;;;;;;;10.27;4.80;;;28.40;99.90;;;;;;1895627;74;21086;-92
2022/07/22 09:12:09;;;;;;;8.60;4.85;;;28.40;99.90;;;;;;1872769;76;21102;-92
2022/07/22 09:15:14;;;;;;;9.20;5.00;;;28.50;99.90;;;;;;1873150;76;21071;-93
2022/07/22 09:18:10;;;;;;;6.55;4.95;;;28.50;99.90;;;;;;1886305;74;21103;-93
2022/07/22 09:21:15;;;;;;;8.53;5.10;;;28.60;99.90;;;;;;1901153;74;21138;-92
2022/07/22 09:24:10;;;;;;;8.00;5.42;;;28.60;99.90;;;;;;1872165;76;21230;-93
2022/07/22 09:27:02;;;;;;;8.98;5.70;;;28.80;99.90;;;;;;1891505;75;21632;-93
2022/07/22 09:29:56;;;;;;;7.65;5.30;;;28.90;99.90;;;;;;1886710;75;21581;-86
2022/07/22 09:32:52;;;;;;;7.17;5.55;;;28.90;99.40;;;;;;1898146;75;21159;-87
2022/07/22 09:35:48;;;;;;;6.95;5.97;;;28.90;99.20;;;;;;1898165;75;21119;-86
2022/07/22 09:38:42;;;;;;;5.97;4.97;;;29.00;99.10;;;;;;1903874;75;21119;-75
2022/07/22 09:41:33;;;;;;;7.62;5.58;;;29.20;99.20;;;;;;1899167;75;21055;-79
2022/07/22 09:44:25;;;;;;;8.80;5.03;;;29.30;98.70;;;;;;1884661;75;21126;-74
2022/07/22 09:47:30;;;;;;;6.53;5.20;;;29.40;98.20;;;;;;1893074;75;21073;-77
2022/07/22 09:50:31;;;;;;;8.15;5.45;;;29.50;97.80;;;;;;1890891;74;21133;-78
2022/07/22 09:53:29;;;;;;;7.12;5.00;;;29.60;97.40;;;;;;1893616;75;21082;-76
2022/07/22 09:56:29;;;;;;;8.50;4.62;;;29.70;96.50;;;;;;1893385;75;21483;-76
2022/07/22 09:59:20;;;;;;;5.28;4.70;;;29.70;96.00;;;;;;1899551;75;21075;-76
2022/07/22 10:02:13;;;;;;;7.95;4.83;;;29.80;95.10;;;;;;1905895;75;21067;-75
2022/07/22 10:05:05;;;;;;;5.72;5.05;;;29.80;94.90;;;;;;1889410;75;21081;-75
2022/07/22 10:07:58;;;;;;;6.92;5.42;;;30.00;94.90;;;;;;1901312;75;21606;-75
2022/07/22 10:10:50;;;;;;;7.85;4.97;;;30.10;95.00;;;;;;1903469;74;21138;-75
2022/07/22 10:13:42;;;;;;;5.50;4.95;;;30.20;94.80;;;;;;1866816;76;21119;-76
2022/07/22 10:16:37;;;;;;;7.50;5.55;;;30.20;94.60;;;;;;1890802;76;21143;-76
2022/07/22 10:19:30;;;;;;;8.05;4.87;;;30.30;94.40;;;;;;1888985;75;21589;-76
2022/07/22 10:22:57;;;;;;;5.45;4.95;;;30.40;94.20;;;;;;1879628;75;21103;-76
2022/07/22 10:26:16;;;;;;;7.65;4.90;;;30.40;93.30;;;;;;1892532;75;21150;-76
2022/07/22 10:29:15;;;;;;;7.92;5.42;;;30.50;93.20;;;;;;1881304;76;21151;-76
2022/07/22 10:35:37;;;;;;;9.40;5.47;;;30.80;93.20;;;;;;1974923;72;22149;-77
2022/07/22 10:38:24;;;;;;;9.03;5.67;;;30.90;92.90;;;;;;1917053;75;21549;-76
2022/07/22 10:41:18;;;;;;;7.15;5.10;;;31.00;93.10;;;;;;1922773;73;21167;-76
2022/07/22 10:44:10;;;;;;;7.75;5.58;;;31.10;92.30;;;;;;1919175;73;21087;-77
2022/07/22 10:47:02;;;;;;;9.28;6.00;;;31.10;92.30;;;;;;1939826;73;21091;-77
2022/07/22 10:49:54;;;;;;;6.78;5.67;;;31.20;92.50;;;;;;1922863;73;21520;-76
2022/07/22 10:52:47;;;;;;;9.05;5.17;;;31.40;92.20;;;;;;1918159;73;21084;-76
2022/07/22 10:55:39;;;;;;;6.10;4.85;;;31.50;92.10;;;;;;1932418;73;21084;-76
2022/07/22 10:58:57;;;;;;;6.37;4.50;;;31.60;91.00;;;;;;1921044;73;21155;-77
2022/07/22 11:01:51;;;;;;;6.80;5.00;;;31.50;90.40;;;;;;1917242;75;21051;-76
2022/07/22 11:04:44;;;;;;;7.97;5.00;;;31.60;90.40;;;;;;1917123;75;21088;-78
2022/07/22 11:07:37;;;;;;;5.95;4.55;;;31.80;90.30;;;;;;1896875;75;21220;-77
2022/07/22 11:10:28;;;;;;;7.85;5.25;;;32.00;87.40;;;;;;1928489;73;21120;-77
2022/07/22 11:13:34;;;;;;;5.45;4.25;;;32.20;87.30;;;;;;1916353;73;21087;-88
2022/07/22 11:16:27;;;;;;;5.17;4.28;;;32.40;85.20;;;;;;1917218;75;21183;-76
2022/07/22 11:19:24;;;;;;;7.75;4.85;;;32.40;84.60;;;;;;1920946;73;21196;-76
2022/07/22 11:22:17;;;;;;;5.47;4.47;;;32.60;84.30;;;;;;1918983;73;21173;-76
2022/07/22 11:25:12;;;;;;;7.60;4.92;;;32.80;82.70;;;;;;1917481;75;21214;-76
2022/07/22 11:28:04;;;;;;;5.87;4.45;;;32.90;81.60;;;;;;1935297;73;21581;-77
2022/07/22 11:31:08;;;;;;;6.03;4.55;;;33.00;80.80;;;;;;1917449;75;21168;-77
2022/07/22 11:34:09;;;;;;;5.40;4.58;;;33.20;78.10;;;;;;1921048;73;21396;-77
2022/07/22 11:37:00;;;;;;;5.72;4.30;;;33.30;76.20;;;;;;1918544;75;21095;-77
2022/07/22 11:39:53;;;;;;;5.12;4.53;;;33.50;76.50;;;;;;1904349;75;21055;-80
2022/07/22 11:42:45;;;;;;;5.67;4.67;;;33.60;74.60;;;;;;1916635;75;21047;-80
2022/07/22 11:45:57;;;;;;;5.60;4.70;;;33.70;73.50;;;;;;1904699;75;21168;-80
2022/07/22 11:48:51;;;;;;;6.10;4.80;;;33.80;72.90;;;;;;1929596;73;21115;-80
2022/07/22 11:51:43;;;;;;;8.80;5.05;;;33.90;71.00;;;;;;1949686;73;21050;-81
2022/07/22 11:54:35;;;;;;;7.70;5.10;;;34.00;70.40;;;;;;1915952;75;21151;-82
2022/07/22 11:57:27;;;;;;;6.28;4.65;;;34.10;69.70;;;;;;1933806;73;21067;-81
2022/07/22 12:00:20;;;;;;;7.55;5.15;;;34.20;67.80;;;;;;1916511;75;21177;-80
2022/07/22 12:03:14;;;;;;;7.70;4.90;;;34.30;68.20;;;;;;1907547;73;21102;-81
2022/07/22 12:06:10;;;;;;;8.55;4.85;;;34.50;67.80;;;;;;1909955;73;21475;-80
2022/07/22 12:09:10;;;;;;;6.85;4.70;;;34.50;67.20;;;;;;1927468;73;21102;-80
2022/07/22 12:12:05;;;;;;;5.35;4.67;;;34.50;67.60;;;;;;1922237;74;21086;-80
2022/07/22 12:15:02;;;;;;;6.00;4.95;;;34.60;66.80;;;;;;1933409;73;21055;-80
2022/07/22 12:18:25;;;;;;;7.28;4.80;;;34.70;65.10;;;;;;1915153;75;21133;-81
2022/07/22 12:21:27;;;;;;;11.33;4.62;;;34.70;65.90;;;;;;1927271;73;21054;-78
2022/07/22 12:24:23;;;;;;;7.67;5.00;;;34.70;66.10;;;;;;1939251;73;21113;-77
2022/07/22 12:30:24;;;;;;;8.65;5.30;;;34.60;66.50;;;;;;1934837;72;22710;-77
2022/07/22 12:33:22;;;;;;;5.22;4.80;;;34.70;67.00;;;;;;1907361;75;21072;-77
2022/07/22 12:36:14;;;;;;;6.40;4.90;;;34.70;66.30;;;;;;1899032;75;21133;-77
2022/07/22 12:39:32;;;;;;;8.40;5.33;;;34.70;65.60;;;;;;1897932;75;21066;-77
2022/07/22 12:42:23;;;;;;;;;;;34.70;66.40;;;;;;1901173;75;21116;-77
2022/07/22 12:45:21;;;;;;;5.62;5.00;;;34.70;66.20;;;;;;1885675;75;20145;-77
2022/07/22 12:48:14;;;;;;;5.92;4.80;;;34.80;66.50;;;;;;1906565;75;21070;-78
2022/07/22 12:51:14;;;;;;;6.50;4.67;;;34.90;65.90;;;;;;1909201;73;21184;-78
2022/07/22 12:56:50;;;;;;;6.17;4.97;;;34.90;65.90;;;;;;1948912;72;22246;-81
2022/07/22 12:59:53;;;;;;;5.62;5.03;;;34.90;64.60;;;;;;1909786;75;21114;-81
2022/07/22 13:02:47;;;;;;;6.95;4.53;;;35.00;65.50;;;;;;1886905;75;21205;-80
2022/07/22 13:05:39;;;;;;;8.85;4.90;;;35.10;65.90;;;;;;1901583;75;21051;-81
2022/07/22 13:08:41;;;;;;;8.60;5.05;;;35.10;65.70;;;;;;1895405;75;21170;-81
2022/07/22 13:11:43;;;;;;;5.60;5.10;;;35.10;65.00;;;;;;1906581;75;21087;-81
2022/07/22 13:14:34;;;;;;;7.67;4.78;;;35.20;64.60;;;;;;1906589;75;21175;-82
2022/07/22 13:21:34;;;;;;;5.67;5.12;;;35.50;64.00;;;;;;1875983;73;21069;-78
2022/07/22 13:24:30;;;;;;;5.37;4.97;;;35.40;63.70;;;;;;1887674;75;21110;-78
2022/07/22 13:27:25;;;;;;;5.85;4.50;;;35.50;62.80;;;;;;1910547;75;21114;-78
2022/07/22 13:42:06;;;;;;;5.62;4.70;;;35.90;61.10;;;;;;1993591;71;22157;-82
2022/07/22 13:57:12;;;;;;;5.53;4.95;;;36.20;59.60;;;;;;2034856;69;22182;-83
2022/07/22 14:03:24;;;;;;;5.47;4.95;;;36.60;59.10;;;;;;2027378;69;22201;-81
2022/07/22 14:06:23;;;;;;;5.92;4.78;;;36.80;58.70;;;;;;1974220;70;21051;-82
2022/07/22 14:09:14;;;;;;;6.65;5.42;;;37.10;58.30;;;;;;1988893;71;21042;-82
2022/07/22 14:12:20;;;;;;;5.22;4.72;;;37.30;56.90;;;;;;1975564;71;21049;-82
2022/07/22 14:15:20;;;;;;;6.22;4.90;;;37.60;56.60;;;;;;1980562;71;21121;-84
2022/07/22 14:18:19;;;;;;;6.10;5.30;;;37.70;56.40;;;;;;2002616;70;21086;-82
2022/07/22 14:21:10;;;;;;;5.67;5.10;;;37.70;55.50;;;;;;1992046;70;21208;-82
2022/07/22 14:24:04;;;;;;;6.67;4.70;;;37.90;54.50;;;;;;2003711;70;21146;-83
2022/07/22 14:26:59;;;;;;;5.70;5.12;;;38.20;54.50;;;;;;1976587;72;21104;-84
2022/07/22 14:29:50;;;;;;;5.72;4.65;;;38.40;54.50;;;;;;1968221;72;21107;-84
2022/07/22 14:32:42;;;;;;;6.35;5.35;;;38.40;53.30;;;;;;1984424;71;21552;-80
2022/07/22 14:35:34;;;;;;;6.60;5.40;;;38.50;52.90;;;;;;1994092;70;21110;-79
2022/07/22 14:41:19;;;;;;;6.80;5.10;;;38.70;52.20;;;;;;1954714;72;22158;-78
2022/07/22 14:44:11;;;;;;;5.70;5.20;;;39.10;52.00;;;;;;1889467;73;21158;-78
2022/07/22 14:49:45;;;;;;;6.80;5.53;;;39.70;49.30;;;;;;1947209;72;22177;-85
2022/07/22 14:52:38;;;;;;;5.47;5.05;;;39.80;48.20;;;;;;1901589;75;21066;-84
2022/07/22 14:55:29;;;;;;;5.62;5.10;;;40.10;48.70;;;;;;1895563;75;21082;-84
2022/07/22 14:58:23;;;;;;;6.70;5.15;;;40.30;47.80;;;;;;1901064;75;21559;-85
2022/07/22 15:01:14;;;;;;;5.40;4.90;;;40.60;47.30;;;;;;1912425;73;21122;-85
2022/07/22 15:04:06;;;;;;;5.92;5.10;;;40.50;46.40;;;;;;1889795;73;21074;-85
2022/07/22 15:06:57;;;;;;;7.40;5.30;;;40.60;46.00;;;;;;1907709;75;21098;-83
2022/07/22 15:09:49;;;;;;;6.10;5.50;;;40.80;45.20;;;;;;1917379;75;21551;-84
2022/07/22 15:16:49;;;;;;;7.05;5.00;;;40.70;44.80;;;;;;1910134;75;21102;-79
2022/07/22 15:19:40;;;;;;;6.20;5.33;;;40.50;44.80;;;;;;1894920;75;21063;-79
2022/07/22 15:22:41;;;;;;;5.65;5.15;;;40.50;43.60;;;;;;1901547;75;21172;-79
2022/07/22 15:25:32;;;;;;;5.60;5.10;;;40.80;44.90;;;;;;1905706;75;21187;-80
2022/07/22 15:28:28;;;;;;;5.75;5.12;;;40.90;43.70;;;;;;1890115;75;21110;-79
2022/07/22 15:31:23;;;;;;;6.65;5.40;;;40.90;43.50;;;;;;1913095;75;21059;-79
2022/07/22 15:34:15;;;;;;;6.87;5.70;;;40.70;43.70;;;;;;1911441;73;21280;-79
2022/07/22 15:37:07;;;;;;;5.85;5.25;;;40.60;43.60;;;;;;1900794;73;21178;-78
2022/07/22 15:39:58;;;;;;;5.97;5.47;;;40.50;44.00;;;;;;1921037;73;21098;-79
2022/07/22 15:42:50;;;;;;;6.20;5.70;;;40.20;43.90;;;;;;1896655;75;21214;-79
2022/07/22 15:45:41;;;;;;;5.85;5.35;;;40.10;43.10;;;;;;1894860;75;21087;-79
2022/07/22 15:48:32;;;;;;;6.50;5.50;;;40.20;43.10;;;;;;1897383;74;21125;-79
2022/07/22 15:51:24;;;;;;;8.30;5.50;;;40.00;43.70;;;;;;1914526;74;21074;-79
2022/07/22 15:54:16;;;;;;;6.10;5.58;;;39.90;44.20;;;;;;1913552;74;21093;-80
2022/07/22 16:00:19;;;;;;;6.08;5.28;;;39.40;44.50;;;;;;1922092;74;21056;-80
2022/07/22 16:03:11;;;;;;;6.00;5.50;;;39.00;45.00;;;;;;1901576;74;21085;-79